Latest METARs, TAFs and NOTAMs for DNAA


---------------------------------------------------------------------------
	(OBSERVATIONS)
DNAA 211200Z NIL=
DNAA 211100Z 19004KT 130V240 9999 BKN009 25/19 Q1018 NOSIG=
DNAA 211000Z VRB02KT 9999 BKN008 24/20 Q1018 NOSIG=
---------------------------------------------------------------------------
	(TERMINAL AREA FORECAST)
DNAA 210940Z 2112/2218 22005KT 9999 BKN009
    TEMPO 2115/2119 09015KT 5000-TSRA BKN008 FEW019CB
    BECMG 2119/2121 VRB02KT FEW008=
---------------------------------------------------------------------------
	(NOTAMS)


DNAA A00140/10 MAINTENANCE WORK IN PROGRESS AT THE INTERNATIONAL
    WING X PILOTS ARE ADVISED TO ADHERE STRICTLY TO ATC INSTRUCTIONS
    X 18 NOV 08:30 UNTIL 18 FEB 08:30 2011 ESTIMATED

---------------------------------------------------------------------------